KFOK/FOK METAR and TAF weather

Enter ICAO airport designator
Station Type Date Time Source
KFOK METAR 2019/12/08 13:53 UTC NOAA

KFOK 081353Z 00000KT 10SM CLR M02/M06 A3058 RMK AO2 SLP355 T10221056


Station Type Date Time Source
KFOK Decoded METAR 2019/12/08 13:53 UTC NOAA

THE GABRESKI AIRPORT, NY, United States (KFOK) 40-51N 072-37W 33M
Dec 08, 2019 - 08:53 AM EST / 2019.12.08 1353 UTC
Wind: Calm:0
Visibility: 10 mile(s):0
Sky conditions: clear
Temperature: 28.0 F (-2.2 C)
Dew Point: 21.9 F (-5.6 C)
Relative Humidity: 77%
Pressure (altimeter): 30.58 in. Hg (1035 hPa)
ob: KFOK 081353Z 00000KT 10SM CLR M02/M06 A3058 RMK AO2 SLP355 T10221056
cycle: 14

Station Type Date Time Source
KFOK TAF UTC NOAA

Error!

Example: see airport list